Time;durP1;ratioP1;P1;durP2;ratioP2;P2;SDS_P1;SDS_P2;PMS_P1;PMS_P2;Temp;Humidity;BMP_temperature;BMP_pressure;BME280_temperature;BME280_humidity;BME280_pressure;Samples;Min_cycle;Max_cycle;Signal;HPM_P1;HPM_P2
2021/10/10 00:00:01;;;;;;;0.53;0.47;;;8.20;97.50;;;;;;5038568;28;20525;-80
2021/10/10 00:02:26;;;;;;;1.07;0.97;;;8.20;97.40;;;;;;5038766;28;20551;-79
2021/10/10 00:04:52;;;;;;;0.40;0.40;;;8.20;97.30;;;;;;5038257;28;20415;-80
2021/10/10 00:07:18;;;;;;;1.03;0.97;;;8.20;97.20;;;;;;5038866;28;20436;-79
2021/10/10 00:09:44;;;;;;;0.70;0.63;;;8.20;97.40;;;;;;5038573;28;20174;-80
2021/10/10 00:12:10;;;;;;;0.70;0.52;;;8.10;97.60;;;;;;5038708;28;20178;-80
2021/10/10 00:14:35;;;;;;;1.00;0.90;;;8.10;97.80;;;;;;5038019;28;20193;-80
2021/10/10 00:17:01;;;;;;;0.70;0.60;;;8.10;97.70;;;;;;5037872;28;20190;-80
2021/10/10 00:19:27;;;;;;;1.07;0.97;;;8.10;97.70;;;;;;5037848;28;20208;-80
2021/10/10 00:21:53;;;;;;;0.73;0.50;;;8.10;97.50;;;;;;5037678;28;20435;-80
2021/10/10 00:24:19;;;;;;;1.47;1.37;;;8.00;97.40;;;;;;5037999;28;20170;-80
2021/10/10 00:26:44;;;;;;;2.77;1.33;;;8.00;97.50;;;;;;5037568;28;20190;-80
2021/10/10 00:29:10;;;;;;;1.80;1.00;;;8.00;97.70;;;;;;5037986;28;20638;-80
2021/10/10 00:31:36;;;;;;;7.60;0.90;;;8.00;97.70;;;;;;5037275;28;20409;-80
2021/10/10 00:34:02;;;;;;;1.03;0.93;;;8.00;97.60;;;;;;5038924;28;20174;-80
2021/10/10 00:36:28;;;;;;;0.90;0.80;;;7.90;97.60;;;;;;5038528;28;20429;-80
2021/10/10 00:38:53;;;;;;;1.20;1.10;;;7.90;97.70;;;;;;5038826;28;20452;-80
2021/10/10 00:41:19;;;;;;;0.70;0.60;;;7.90;97.60;;;;;;5038013;28;20413;-79
2021/10/10 00:43:45;;;;;;;0.70;0.60;;;7.90;97.50;;;;;;5038280;28;20193;-79
2021/10/10 00:46:14;;;;;;;1.17;0.60;;;7.90;97.50;;;;;;5038090;28;20212;-80
2021/10/10 00:48:39;;;;;;;5.90;1.10;;;7.80;97.70;;;;;;5037634;28;20416;-80
2021/10/10 00:51:06;;;;;;;1.10;0.82;;;7.80;97.70;;;;;;5037771;28;20182;-80
2021/10/10 00:53:36;;;;;;;0.50;0.40;;;7.70;97.80;;;;;;5037730;28;20265;-79
2021/10/10 00:56:02;;;;;;;0.90;0.80;;;7.80;97.90;;;;;;5038018;28;20178;-79
2021/10/10 00:58:30;;;;;;;0.68;0.60;;;7.70;97.90;;;;;;5037186;28;20201;-80
2021/10/10 01:00:56;;;;;;;0.60;0.50;;;7.70;98.20;;;;;;5037161;28;20634;-80
2021/10/10 01:03:23;;;;;;;0.40;0.40;;;7.70;98.20;;;;;;5036946;28;20185;-80
2021/10/10 01:05:49;;;;;;;8.32;0.98;;;7.60;98.20;;;;;;5037448;28;20256;-80
2021/10/10 01:08:17;;;;;;;0.70;0.60;;;7.60;98.10;;;;;;5037169;28;20239;-80
2021/10/10 01:10:49;;;;;;;0.90;0.80;;;7.60;98.20;;;;;;5037010;28;20710;-80
2021/10/10 01:13:18;;;;;;;0.70;0.60;;;7.60;98.10;;;;;;5036490;28;20189;-79
2021/10/10 01:15:44;;;;;;;0.60;0.50;;;7.50;98.20;;;;;;5055963;23;20240;-78
2021/10/10 01:18:10;;;;;;;0.73;0.67;;;7.50;98.40;;;;;;5044339;28;20245;-78
2021/10/10 01:20:47;;;;;;;1.00;0.90;;;7.50;98.50;;;;;;5044209;28;20499;-78
2021/10/10 01:23:14;;;;;;;1.02;0.93;;;7.40;98.60;;;;;;5043559;28;20405;-78
2021/10/10 01:25:39;;;;;;;1.98;1.27;;;7.40;98.70;;;;;;5043114;28;20173;-78
2021/10/10 01:28:05;;;;;;;0.60;0.50;;;7.40;98.80;;;;;;5043722;28;20194;-78
2021/10/10 01:30:32;;;;;;;0.40;0.40;;;7.40;98.80;;;;;;5043622;28;20413;-78
2021/10/10 01:32:58;;;;;;;1.70;1.60;;;7.40;98.70;;;;;;5042681;28;20169;-78
2021/10/10 01:35:24;;;;;;;0.70;0.60;;;7.40;98.60;;;;;;5043073;28;20177;-79
2021/10/10 01:37:50;;;;;;;2.53;0.80;;;7.40;98.60;;;;;;5043025;28;20296;-78
2021/10/10 01:40:16;;;;;;;1.05;0.82;;;7.40;98.90;;;;;;5042946;28;20409;-78
2021/10/10 01:42:41;;;;;;;0.40;0.40;;;7.30;99.10;;;;;;5043691;28;20170;-78
2021/10/10 01:45:19;;;;;;;0.90;0.80;;;7.30;99.10;;;;;;5043323;28;20900;-78
2021/10/10 01:47:45;;;;;;;0.70;0.63;;;7.30;99.00;;;;;;5043030;28;20243;-78
2021/10/10 01:50:11;;;;;;;0.70;0.60;;;7.20;99.00;;;;;;5043409;28;20170;-78
2021/10/10 01:52:40;;;;;;;1.17;1.08;;;7.20;99.00;;;;;;5042906;28;20441;-78
2021/10/10 01:55:06;;;;;;;0.98;0.65;;;7.20;99.00;;;;;;5042760;28;20332;-78
2021/10/10 01:57:32;;;;;;;0.60;0.50;;;7.20;98.80;;;;;;5043032;28;20573;-79
2021/10/10 01:59:57;;;;;;;4.90;1.17;;;7.10;99.00;;;;;;5042976;28;20174;-78
2021/10/10 02:02:23;;;;;;;1.50;0.83;;;7.10;99.10;;;;;;5043356;28;20794;-78
2021/10/10 02:04:49;;;;;;;3.27;1.27;;;7.10;99.10;;;;;;5042491;28;20178;-78
2021/10/10 02:07:15;;;;;;;1.27;1.17;;;7.00;99.10;;;;;;5042751;28;20253;-78
2021/10/10 02:09:42;;;;;;;0.53;0.47;;;7.00;99.10;;;;;;5042939;28;20174;-78
2021/10/10 02:12:08;;;;;;;3.15;0.90;;;7.00;99.10;;;;;;5042193;28;20727;-78
2021/10/10 02:14:36;;;;;;;0.40;0.40;;;7.00;99.10;;;;;;5042633;28;20186;-78
2021/10/10 02:17:03;;;;;;;0.50;0.40;;;7.00;99.10;;;;;;5042445;28;20600;-78
2021/10/10 02:19:29;;;;;;;1.27;0.75;;;7.00;99.10;;;;;;5042448;28;20197;-78
2021/10/10 02:21:55;;;;;;;2.95;1.15;;;7.00;98.90;;;;;;5042393;28;20178;-78
2021/10/10 02:24:21;;;;;;;0.40;0.40;;;6.90;98.80;;;;;;5043002;28;20588;-78
2021/10/10 02:26:47;;;;;;;1.77;0.97;;;6.90;98.80;;;;;;5042802;28;20281;-78
2021/10/10 02:29:13;;;;;;;0.60;0.50;;;6.90;98.80;;;;;;5042895;28;20507;-78
2021/10/10 02:31:42;;;;;;;0.70;0.60;;;6.90;98.60;;;;;;5042892;28;20412;-78
2021/10/10 02:34:09;;;;;;;0.70;0.65;;;6.80;98.60;;;;;;5042801;28;20201;-77
2021/10/10 02:36:36;;;;;;;1.58;0.60;;;6.80;98.80;;;;;;5042495;28;20729;-78
2021/10/10 02:39:03;;;;;;;0.60;0.50;;;6.80;98.90;;;;;;5043779;28;20247;-78
2021/10/10 02:41:28;;;;;;;0.40;0.40;;;6.80;99.00;;;;;;5042640;28;20181;-78
2021/10/10 02:43:54;;;;;;;2.23;1.27;;;6.80;99.10;;;;;;5042456;28;20174;-78
2021/10/10 02:46:20;;;;;;;0.60;0.60;;;6.80;99.10;;;;;;5042025;28;20428;-78
2021/10/10 02:48:46;;;;;;;2.60;1.23;;;6.70;99.10;;;;;;5042299;28;20178;-78
2021/10/10 02:51:11;;;;;;;0.47;0.40;;;6.80;99.10;;;;;;5042277;28;20490;-78
2021/10/10 02:53:37;;;;;;;1.07;0.97;;;6.70;99.00;;;;;;5042099;28;20432;-78
2021/10/10 02:56:03;;;;;;;6.10;1.30;;;6.70;99.00;;;;;;5041547;28;20182;-78
2021/10/10 02:58:29;;;;;;;2.67;1.05;;;6.70;98.80;;;;;;5042053;28;20292;-78
2021/10/10 03:00:55;;;;;;;0.60;0.50;;;6.70;99.10;;;;;;5041920;28;20170;-78
2021/10/10 03:03:21;;;;;;;0.60;0.50;;;6.60;99.10;;;;;;5041162;28;20197;-78
2021/10/10 03:05:47;;;;;;;0.70;0.60;;;6.60;99.10;;;;;;5041943;28;20223;-78
2021/10/10 03:08:13;;;;;;;0.50;0.40;;;6.60;99.10;;;;;;5041143;28;20451;-78
2021/10/10 03:10:39;;;;;;;0.50;0.50;;;6.50;99.10;;;;;;5041439;28;20174;-78
2021/10/10 03:13:06;;;;;;;0.70;0.60;;;6.50;99.10;;;;;;5041777;28;20182;-78
2021/10/10 03:15:32;;;;;;;0.82;0.73;;;6.50;99.10;;;;;;5041338;28;20204;-78
2021/10/10 03:17:58;;;;;;;1.42;0.73;;;6.50;99.10;;;;;;5045358;28;20210;-78
2021/10/10 03:20:23;;;;;;;0.70;0.60;;;6.50;99.10;;;;;;5045837;28;20265;-78
2021/10/10 03:22:49;;;;;;;0.70;0.60;;;6.50;99.10;;;;;;5045293;28;20507;-78
2021/10/10 03:25:15;;;;;;;3.13;1.67;;;6.50;99.10;;;;;;5044887;28;20409;-78
2021/10/10 03:27:41;;;;;;;1.90;1.03;;;6.50;99.10;;;;;;5045512;28;20899;-78
2021/10/10 03:30:07;;;;;;;0.50;0.40;;;6.50;99.10;;;;;;5046156;28;20434;-78
2021/10/10 03:32:33;;;;;;;0.80;0.70;;;6.50;99.10;;;;;;5045338;28;20415;-78
2021/10/10 03:34:59;;;;;;;0.40;0.40;;;6.50;99.10;;;;;;5046079;28;20261;-78
2021/10/10 03:37:24;;;;;;;0.80;0.70;;;6.50;99.10;;;;;;5045635;28;20202;-78
2021/10/10 03:39:50;;;;;;;0.70;0.60;;;6.50;99.10;;;;;;5045661;28;20181;-78
2021/10/10 03:42:16;;;;;;;1.33;1.23;;;6.50;99.10;;;;;;5045903;28;20169;-78
2021/10/10 03:44:42;;;;;;;0.70;0.60;;;6.50;99.10;;;;;;5045879;28;20193;-78
2021/10/10 03:47:08;;;;;;;0.60;0.50;;;6.50;99.10;;;;;;5045011;28;20424;-78
2021/10/10 03:49:34;;;;;;;0.40;0.40;;;6.50;99.10;;;;;;5045708;28;20416;-78
2021/10/10 03:52:01;;;;;;;0.60;0.50;;;6.50;99.10;;;;;;5044761;28;20186;-78
2021/10/10 03:56:53;;;;;;;0.55;0.47;;;6.40;99.10;;;;;;5046558;28;20198;-80
2021/10/10 03:59:23;;;;;;;1.27;1.05;;;6.40;99.10;;;;;;5044581;28;20213;-80
2021/10/10 04:01:49;;;;;;;0.55;0.45;;;6.40;99.10;;;;;;5044297;28;20188;-80
2021/10/10 04:04:17;;;;;;;2.35;0.77;;;6.40;99.10;;;;;;5044902;28;20170;-80
2021/10/10 04:06:42;;;;;;;1.48;0.60;;;6.30;99.10;;;;;;5044692;28;20205;-80
2021/10/10 04:09:08;;;;;;;0.90;0.80;;;6.30;99.10;;;;;;5044562;28;20170;-80
2021/10/10 04:11:34;;;;;;;0.90;0.90;;;6.30;99.10;;;;;;5044404;28;20424;-80
2021/10/10 04:14:00;;;;;;;4.00;0.80;;;6.30;99.10;;;;;;5043462;28;20427;-80
2021/10/10 04:16:25;;;;;;;0.50;0.40;;;6.20;99.10;;;;;;5043401;28;20586;-80
2021/10/10 04:18:51;;;;;;;0.60;0.50;;;6.20;99.10;;;;;;5043264;28;20502;-80
2021/10/10 04:21:17;;;;;;;0.90;0.63;;;6.20;99.10;;;;;;5043823;28;20695;-80
2021/10/10 04:23:43;;;;;;;2.13;0.90;;;6.20;99.10;;;;;;5043764;28;20415;-80
2021/10/10 04:26:08;;;;;;;5.20;1.10;;;6.10;99.10;;;;;;5043727;28;20528;-80
2021/10/10 04:28:34;;;;;;;0.80;0.70;;;6.10;99.10;;;;;;5043145;28;20178;-80
2021/10/10 04:31:00;;;;;;;0.60;0.60;;;6.10;99.10;;;;;;5044664;28;20197;-80
2021/10/10 04:33:26;;;;;;;0.70;0.60;;;6.10;99.10;;;;;;5044782;28;20174;-80
2021/10/10 04:35:51;;;;;;;0.80;0.70;;;6.10;99.10;;;;;;5044310;28;20428;-80
2021/10/10 04:38:17;;;;;;;0.40;0.40;;;6.10;99.10;;;;;;5043862;28;20456;-80
2021/10/10 04:40:44;;;;;;;1.90;0.60;;;6.00;99.10;;;;;;5045532;28;20413;-80
2021/10/10 04:43:10;;;;;;;0.40;0.40;;;6.10;99.10;;;;;;5045120;28;20175;-80
2021/10/10 04:45:36;;;;;;;1.00;0.90;;;6.00;99.10;;;;;;5044093;28;20197;-80
2021/10/10 04:48:02;;;;;;;0.40;0.40;;;6.00;99.10;;;;;;5044524;28;20237;-80
2021/10/10 04:50:29;;;;;;;2.20;0.68;;;6.00;99.10;;;;;;5044506;28;20241;-80
2021/10/10 04:52:55;;;;;;;0.73;0.60;;;6.00;99.10;;;;;;5043458;28;20182;-80
2021/10/10 04:55:21;;;;;;;0.77;0.67;;;6.00;99.10;;;;;;5043258;28;20253;-80
2021/10/10 04:57:46;;;;;;;14.73;0.87;;;5.90;99.10;;;;;;5044110;28;20201;-80
2021/10/10 05:00:13;;;;;;;0.60;0.50;;;5.90;99.10;;;;;;5043025;28;20173;-80
2021/10/10 05:02:38;;;;;;;4.10;0.60;;;5.90;99.10;;;;;;5044059;28;20517;-80
2021/10/10 05:05:05;;;;;;;1.00;0.60;;;5.90;99.10;;;;;;5043419;28;20177;-80
2021/10/10 05:07:30;;;;;;;0.40;0.40;;;5.90;99.10;;;;;;5042998;28;20670;-80
2021/10/10 05:09:56;;;;;;;1.43;0.67;;;5.90;99.10;;;;;;5043062;28;20224;-80
2021/10/10 05:12:22;;;;;;;0.63;0.53;;;5.90;99.10;;;;;;5042976;28;20257;-80
2021/10/10 05:14:48;;;;;;;1.83;1.43;;;5.90;99.10;;;;;;5042842;28;20447;-79
2021/10/10 05:17:13;;;;;;;2.10;1.47;;;5.80;99.10;;;;;;5042924;28;20213;-80
2021/10/10 05:19:39;;;;;;;1.67;1.33;;;5.80;99.10;;;;;;5044088;28;20197;-80
2021/10/10 05:22:05;;;;;;;0.43;0.40;;;5.80;99.10;;;;;;5042071;28;20794;-80
2021/10/10 05:24:31;;;;;;;0.50;0.50;;;5.80;99.10;;;;;;5042113;28;20424;-80
2021/10/10 05:26:59;;;;;;;0.77;0.68;;;5.80;99.10;;;;;;5042062;28;20608;-80
2021/10/10 05:29:25;;;;;;;5.55;1.05;;;5.80;99.10;;;;;;5042323;28;20220;-80
2021/10/10 05:31:51;;;;;;;0.40;0.40;;;5.70;99.10;;;;;;5042527;28;20170;-80
2021/10/10 05:34:17;;;;;;;1.80;1.27;;;5.70;99.10;;;;;;5042334;28;20417;-80
2021/10/10 05:36:42;;;;;;;0.50;0.47;;;5.70;99.10;;;;;;5042220;28;20436;-79
2021/10/10 05:39:08;;;;;;;0.40;0.40;;;5.70;99.10;;;;;;5042151;28;20837;-80
2021/10/10 05:41:34;;;;;;;0.60;0.50;;;5.70;99.10;;;;;;5043421;28;20174;-80
2021/10/10 05:44:00;;;;;;;0.47;0.40;;;5.70;99.10;;;;;;5042331;28;20428;-80
2021/10/10 05:46:26;;;;;;;0.88;0.73;;;5.70;99.10;;;;;;5042816;28;20429;-80
2021/10/10 05:48:52;;;;;;;0.70;0.60;;;5.60;99.10;;;;;;5042410;28;20241;-80
2021/10/10 05:51:18;;;;;;;0.60;0.50;;;5.60;99.10;;;;;;5041718;28;20409;-80
2021/10/10 05:53:43;;;;;;;0.40;0.40;;;5.60;99.10;;;;;;5041355;28;20929;-80
2021/10/10 05:56:09;;;;;;;0.70;0.70;;;5.60;99.10;;;;;;5040628;28;20456;-80
2021/10/10 05:58:41;;;;;;;0.60;0.43;;;5.60;99.10;;;;;;5041341;28;20467;-80
2021/10/10 06:01:07;;;;;;;0.93;0.82;;;5.60;99.10;;;;;;5041642;28;20401;-79
2021/10/10 06:03:33;;;;;;;0.70;0.60;;;5.60;99.10;;;;;;5042684;28;20173;-80
2021/10/10 06:05:58;;;;;;;1.10;0.80;;;5.60;99.10;;;;;;5041558;28;20945;-80
2021/10/10 06:08:24;;;;;;;0.40;0.40;;;5.60;99.10;;;;;;5040582;28;20432;-80
2021/10/10 06:10:50;;;;;;;0.63;0.57;;;5.60;99.10;;;;;;5040603;28;20196;-80
2021/10/10 06:13:16;;;;;;;0.60;0.50;;;5.60;99.10;;;;;;5041693;28;20447;-80
2021/10/10 06:15:42;;;;;;;0.60;0.50;;;5.70;99.10;;;;;;5041865;28;20483;-80
2021/10/10 06:18:08;;;;;;;0.65;0.55;;;5.70;99.10;;;;;;5043484;28;20469;-80
2021/10/10 06:20:36;;;;;;;1.35;0.75;;;5.70;99.10;;;;;;5043151;28;20170;-80
2021/10/10 06:23:01;;;;;;;1.58;0.77;;;5.70;99.10;;;;;;5042194;28;20174;-80
2021/10/10 06:25:27;;;;;;;4.60;0.87;;;5.70;99.10;;;;;;5041630;28;20170;-80
2021/10/10 06:27:53;;;;;;;3.90;0.60;;;5.80;99.10;;;;;;5041980;28;20440;-80
2021/10/10 06:30:19;;;;;;;0.40;0.40;;;5.80;99.10;;;;;;5041884;28;20423;-80
2021/10/10 06:32:44;;;;;;;13.33;2.33;;;5.80;99.10;;;;;;5041526;28;20425;-80
2021/10/10 06:35:11;;;;;;;0.87;0.60;;;5.90;99.10;;;;;;5042373;28;20174;-80
2021/10/10 06:37:36;;;;;;;0.40;0.40;;;5.90;99.10;;;;;;5041529;28;20209;-80
2021/10/10 06:40:04;;;;;;;0.60;0.50;;;5.90;99.10;;;;;;5041297;28;20173;-80
2021/10/10 06:42:30;;;;;;;1.50;1.45;;;6.00;99.10;;;;;;5041762;28;20413;-80
2021/10/10 06:44:56;;;;;;;1.02;0.93;;;6.00;99.10;;;;;;5041981;28;20170;-80
2021/10/10 06:47:21;;;;;;;0.60;0.50;;;6.10;99.10;;;;;;5041306;28;20223;-80
2021/10/10 06:49:47;;;;;;;0.70;0.60;;;6.10;99.10;;;;;;5041699;28;20420;-80
2021/10/10 06:52:14;;;;;;;1.07;0.80;;;6.10;99.10;;;;;;5040095;28;20484;-80
2021/10/10 06:54:40;;;;;;;1.00;0.68;;;6.20;99.10;;;;;;5040087;28;20756;-80
2021/10/10 06:57:06;;;;;;;1.65;0.60;;;6.30;99.10;;;;;;5040105;28;20190;-79
2021/10/10 06:59:32;;;;;;;1.35;1.08;;;6.30;99.10;;;;;;5039652;28;20208;-80
2021/10/10 07:01:58;;;;;;;3.35;1.38;;;6.40;99.10;;;;;;5040202;28;20178;-80
2021/10/10 07:04:24;;;;;;;1.47;0.93;;;6.40;99.10;;;;;;5040854;28;20186;-80
2021/10/10 07:06:49;;;;;;;4.43;1.17;;;6.50;99.10;;;;;;5040767;28;20532;-80
2021/10/10 07:09:15;;;;;;;0.73;0.70;;;6.50;99.10;;;;;;5040328;28;20431;-80
2021/10/10 07:11:41;;;;;;;1.45;1.33;;;6.60;99.10;;;;;;5040892;28;20401;-80
2021/10/10 07:14:07;;;;;;;0.60;0.50;;;6.60;99.10;;;;;;5040685;28;20176;-80
2021/10/10 07:16:34;;;;;;;0.60;0.50;;;6.60;99.10;;;;;;5046353;23;20312;-79
2021/10/10 07:19:02;;;;;;;0.60;0.50;;;6.70;99.10;;;;;;5032882;28;20471;-78
2021/10/10 07:21:43;;;;;;;0.85;0.85;;;6.70;99.10;;;;;;5032799;28;20184;-79
2021/10/10 07:26:54;;;;;;;0.60;0.50;;;6.90;99.10;;;;;;5035779;28;20252;-80
2021/10/10 07:29:20;;;;;;;0.75;0.68;;;7.00;99.10;;;;;;5033701;28;20181;-80
2021/10/10 07:31:46;;;;;;;0.60;0.50;;;7.00;99.10;;;;;;5033949;28;20265;-80
2021/10/10 07:34:12;;;;;;;0.50;0.40;;;7.10;99.10;;;;;;5033941;28;20607;-80
2021/10/10 07:36:37;;;;;;;1.97;1.87;;;7.10;99.10;;;;;;5033740;28;20440;-80
2021/10/10 07:39:03;;;;;;;0.60;0.50;;;7.20;99.10;;;;;;5033881;28;20452;-80
2021/10/10 07:41:30;;;;;;;1.00;0.90;;;7.20;99.10;;;;;;5033397;28;20412;-80
2021/10/10 07:43:56;;;;;;;1.05;0.95;;;7.20;99.10;;;;;;5033978;28;20409;-80
2021/10/10 07:46:32;;;;;;;0.88;0.60;;;7.20;99.10;;;;;;5033226;28;20190;-80
2021/10/10 07:48:58;;;;;;;4.88;0.85;;;7.30;99.10;;;;;;5033952;28;20189;-80
2021/10/10 07:51:27;;;;;;;2.57;1.70;;;7.30;99.10;;;;;;5033786;28;20646;-81
2021/10/10 07:53:53;;;;;;;0.45;0.43;;;7.30;99.10;;;;;;5035921;28;20424;-80
2021/10/10 07:56:19;;;;;;;0.80;0.50;;;7.40;99.10;;;;;;5033209;28;20285;-80
2021/10/10 07:58:45;;;;;;;0.90;0.80;;;7.50;99.10;;;;;;5033361;28;20288;-80
2021/10/10 08:01:11;;;;;;;3.90;1.20;;;7.70;99.10;;;;;;5033198;28;20416;-79
2021/10/10 08:03:37;;;;;;;2.80;1.93;;;7.80;99.10;;;;;;5034762;28;20492;-79
2021/10/10 08:06:02;;;;;;;3.07;1.87;;;7.80;98.70;;;;;;5036522;28;20436;-79
2021/10/10 08:08:28;;;;;;;0.90;0.80;;;7.90;98.70;;;;;;5036544;28;20196;-80
2021/10/10 08:10:54;;;;;;;0.90;0.80;;;7.90;98.40;;;;;;5036449;28;20912;-79
2021/10/10 08:13:20;;;;;;;0.90;0.80;;;8.00;98.80;;;;;;5036608;28;20537;-79
2021/10/10 08:15:46;;;;;;;0.90;0.80;;;8.10;99.10;;;;;;5035930;28;20428;-80
2021/10/10 08:18:11;;;;;;;6.10;0.60;;;8.20;98.50;;;;;;5035408;28;20453;-80
2021/10/10 08:20:38;;;;;;;0.83;0.73;;;8.30;98.00;;;;;;5036359;28;20170;-80
2021/10/10 08:23:05;;;;;;;1.95;0.75;;;8.40;97.40;;;;;;5036490;28;20474;-80
2021/10/10 08:25:32;;;;;;;2.03;1.02;;;8.60;96.60;;;;;;5036963;28;20170;-81
2021/10/10 08:27:59;;;;;;;1.50;0.90;;;8.70;96.60;;;;;;5037119;28;20540;-80
2021/10/10 08:30:25;;;;;;;0.88;0.70;;;8.80;96.70;;;;;;5036886;28;20723;-80
2021/10/10 08:32:52;;;;;;;1.15;1.08;;;9.00;96.20;;;;;;5036246;28;20177;-81
2021/10/10 08:35:19;;;;;;;4.15;2.05;;;9.20;94.50;;;;;;5036625;28;20180;-81
2021/10/10 08:37:45;;;;;;;0.70;0.60;;;9.20;94.70;;;;;;5036488;28;20243;-79
2021/10/10 08:40:15;;;;;;;1.35;1.17;;;9.30;93.80;;;;;;5036727;28;20193;-79
2021/10/10 08:42:51;;;;;;;0.40;0.40;;;9.40;92.90;;;;;;5036704;28;20180;-80
2021/10/10 08:45:23;;;;;;;2.60;1.00;;;9.40;92.70;;;;;;5036400;28;20525;-80
2021/10/10 08:47:51;;;;;;;3.00;1.25;;;9.50;93.10;;;;;;5036499;28;20190;-80
2021/10/10 08:50:18;;;;;;;0.52;0.50;;;9.50;93.10;;;;;;5036051;28;20240;-79
2021/10/10 08:52:46;;;;;;;4.07;0.82;;;9.50;92.50;;;;;;5036370;28;20176;-79
2021/10/10 08:55:13;;;;;;;0.95;0.65;;;9.60;92.30;;;;;;5035279;28;20170;-79
2021/10/10 08:57:40;;;;;;;0.82;0.73;;;9.70;92.20;;;;;;5034838;28;20677;-79
2021/10/10 09:00:15;;;;;;;1.60;1.30;;;9.70;91.90;;;;;;5035613;28;20177;-79
2021/10/10 09:02:43;;;;;;;1.00;0.82;;;9.80;91.80;;;;;;5035288;28;20199;-79
2021/10/10 09:05:09;;;;;;;5.22;1.42;;;9.90;90.30;;;;;;5035385;28;20428;-80
2021/10/10 09:07:36;;;;;;;0.98;0.90;;;10.00;89.50;;;;;;5034622;28;20190;-80
2021/10/10 09:10:27;;;;;;;0.82;0.73;;;9.90;90.60;;;;;;5034604;28;20181;-79
2021/10/10 09:13:05;;;;;;;4.03;2.00;;;10.00;89.50;;;;;;5034886;28;20166;-80
2021/10/10 09:15:32;;;;;;;1.13;1.08;;;10.10;89.60;;;;;;5034377;28;20677;-80
2021/10/10 09:18:00;;;;;;;0.73;0.68;;;10.20;89.10;;;;;;5035080;28;20282;-80
2021/10/10 09:20:31;;;;;;;1.92;1.40;;;10.30;88.30;;;;;;5035418;28;20166;-80
2021/10/10 09:22:58;;;;;;;1.52;1.50;;;10.40;87.60;;;;;;5035633;28;20201;-80
2021/10/10 09:25:24;;;;;;;1.90;1.17;;;10.50;87.30;;;;;;5035525;28;20268;-79
2021/10/10 09:27:50;;;;;;;1.80;1.45;;;10.60;88.40;;;;;;5035825;28;20224;-79
2021/10/10 09:30:20;;;;;;;1.83;1.65;;;10.70;87.00;;;;;;5035539;28;20178;-80
2021/10/10 09:32:46;;;;;;;1.58;0.50;;;10.80;85.90;;;;;;5034895;28;20176;-79
2021/10/10 09:35:28;;;;;;;2.03;1.90;;;10.80;86.60;;;;;;5034732;28;20220;-80
2021/10/10 09:38:23;;;;;;;4.88;4.63;;;11.00;85.60;;;;;;5034233;28;20281;-80
2021/10/10 09:41:00;;;;;;;1.70;0.90;;;11.10;84.40;;;;;;5035473;28;20264;-79
2021/10/10 09:43:26;;;;;;;2.92;0.65;;;11.20;84.10;;;;;;5035978;28;20231;-81
2021/10/10 09:48:38;;;;;;;1.00;0.90;;;11.40;84.90;;;;;;5038017;28;20416;-81
2021/10/10 09:51:04;;;;;;;3.50;1.75;;;11.50;84.20;;;;;;5036321;28;20420;-81
2021/10/10 09:53:34;;;;;;;1.00;0.90;;;11.60;82.80;;;;;;5035944;28;20178;-81
2021/10/10 09:56:08;;;;;;;3.30;1.67;;;11.70;82.60;;;;;;5036577;28;20297;-80
2021/10/10 09:58:38;;;;;;;0.82;0.55;;;11.80;82.40;;;;;;5036105;28;20190;-81
2021/10/10 10:01:20;;;;;;;1.15;1.00;;;11.80;81.90;;;;;;5034416;28;20642;-79
2021/10/10 10:04:03;;;;;;;1.88;1.48;;;12.00;80.60;;;;;;5033458;28;20173;-80
2021/10/10 10:06:36;;;;;;;3.03;1.40;;;12.10;80.30;;;;;;5036189;28;20205;-79
2021/10/10 10:09:10;;;;;;;1.50;1.20;;;12.20;79.40;;;;;;5034339;28;20769;-80
2021/10/10 10:11:41;;;;;;;2.60;2.42;;;12.30;78.90;;;;;;5034532;28;20646;-80
2021/10/10 10:14:17;;;;;;;2.40;2.20;;;12.50;79.60;;;;;;5033883;28;20170;-80
2021/10/10 10:16:48;;;;;;;3.20;1.92;;;12.60;79.20;;;;;;5034085;28;20281;-81
2021/10/10 10:19:19;;;;;;;3.38;3.17;;;12.80;78.00;;;;;;5034423;28;20193;-81
2021/10/10 10:21:52;;;;;;;2.95;1.05;;;13.00;77.30;;;;;;5034668;28;20548;-80
2021/10/10 10:24:19;;;;;;;2.80;2.60;;;13.10;77.00;;;;;;5034407;28;20166;-81
2021/10/10 10:26:45;;;;;;;1.83;1.75;;;13.20;73.80;;;;;;5033521;28;20717;-80
2021/10/10 10:29:23;;;;;;;1.40;1.30;;;13.30;75.20;;;;;;5034567;28;20205;-80
2021/10/10 10:31:50;;;;;;;1.77;1.67;;;13.40;73.90;;;;;;5034796;28;20427;-80
2021/10/10 10:34:30;;;;;;;1.40;1.35;;;13.60;74.50;;;;;;5033932;28;20174;-80
2021/10/10 10:36:58;;;;;;;0.88;0.70;;;13.80;73.10;;;;;;5033916;28;20204;-81
2021/10/10 10:39:50;;;;;;;2.00;1.80;;;13.90;73.40;;;;;;5034236;28;20216;-80
2021/10/10 10:42:22;;;;;;;2.97;2.10;;;14.10;71.20;;;;;;5029822;28;20180;-81
2021/10/10 10:44:51;;;;;;;1.83;1.73;;;14.20;70.80;;;;;;5033523;28;20174;-81
2021/10/10 10:47:21;;;;;;;2.63;1.95;;;14.30;72.00;;;;;;5034517;28;20657;-80
2021/10/10 10:49:59;;;;;;;1.13;1.02;;;14.40;70.10;;;;;;5033819;28;20231;-81
2021/10/10 10:52:34;;;;;;;2.88;1.60;;;14.40;69.50;;;;;;5035700;28;20205;-81
2021/10/10 10:55:18;;;;;;;1.50;0.98;;;14.60;70.60;;;;;;5033619;28;20169;-80
2021/10/10 10:58:06;;;;;;;1.20;0.70;;;14.70;69.50;;;;;;5033448;28;20189;-80
2021/10/10 11:00:37;;;;;;;2.17;1.30;;;14.80;68.80;;;;;;5033807;28;20255;-81
2021/10/10 11:03:06;;;;;;;0.90;0.80;;;14.90;68.70;;;;;;5033121;28;20649;-81
2021/10/10 11:05:41;;;;;;;0.77;0.68;;;15.00;67.70;;;;;;5033448;28;20173;-80
2021/10/10 11:08:17;;;;;;;2.10;1.85;;;15.00;68.00;;;;;;5033711;28;20197;-81
2021/10/10 11:11:34;;;;;;;2.05;1.67;;;15.20;68.90;;;;;;5034276;28;20184;-81
2021/10/10 11:14:03;;;;;;;2.38;1.10;;;15.30;67.80;;;;;;4990933;28;20615;-80
2021/10/10 11:16:34;;;;;;;1.55;1.45;;;15.50;68.50;;;;;;5033671;28;20213;-81
2021/10/10 11:19:06;;;;;;;2.15;1.08;;;15.70;66.60;;;;;;5035698;28;20229;-81
2021/10/10 11:21:43;;;;;;;3.08;1.95;;;15.90;65.10;;;;;;5034828;28;20205;-79
2021/10/10 11:24:21;;;;;;;2.45;2.10;;;16.10;64.80;;;;;;5034247;28;20165;-81
2021/10/10 11:26:50;;;;;;;2.85;1.83;;;16.20;62.70;;;;;;5035446;28;20197;-81
2021/10/10 11:29:17;;;;;;;7.63;2.95;;;16.30;63.00;;;;;;5035303;28;20689;-81
2021/10/10 11:31:45;;;;;;;4.38;1.67;;;16.40;63.80;;;;;;5035166;28;20177;-81
2021/10/10 11:34:17;;;;;;;2.20;1.80;;;16.50;62.30;;;;;;5034554;28;20173;-81
2021/10/10 11:36:58;;;;;;;1.90;1.90;;;16.50;61.40;;;;;;5034896;28;20215;-79
2021/10/10 11:39:35;;;;;;;4.50;2.13;;;16.30;62.00;;;;;;5038376;28;20201;-81
2021/10/10 11:42:04;;;;;;;1.20;1.13;;;16.40;61.70;;;;;;5038784;28;20173;-80
2021/10/10 11:44:42;;;;;;;1.77;1.35;;;16.40;62.00;;;;;;5038238;28;20312;-81
2021/10/10 11:47:20;;;;;;;1.75;1.42;;;;;;;;;;5037875;28;20191;-81
2021/10/10 11:49:56;;;;;;;7.13;1.45;;;;;;;;;;5037652;28;20177;-81
2021/10/10 11:52:33;;;;;;;8.32;2.65;;;;;;;;;;5038069;28;20197;-82
2021/10/10 11:55:13;;;;;;;2.05;1.92;;;;;;;;;;5037567;28;20174;-81
2021/10/10 11:57:40;;;;;;;2.50;1.85;;;;;;;;;;5037565;28;20228;-82
2021/10/10 12:00:06;;;;;;;3.10;1.25;;;;;;;;;;5037142;28;20173;-81
2021/10/10 12:02:37;;;;;;;1.42;1.33;;;17.60;58.10;;;;;;5039232;28;20196;-81
2021/10/10 12:05:10;;;;;;;5.45;1.45;;;17.60;58.10;;;;;;5036429;28;20180;-81
2021/10/10 12:07:38;;;;;;;1.05;0.90;;;17.70;58.00;;;;;;5037426;28;20292;-81
2021/10/10 12:10:06;;;;;;;2.00;1.52;;;17.70;58.10;;;;;;5037157;28;20181;-80
2021/10/10 12:12:32;;;;;;;5.35;2.58;;;17.80;57.20;;;;;;5037498;28;20174;-80
2021/10/10 12:14:59;;;;;;;3.20;3.00;;;17.80;59.20;;;;;;5036652;28;20174;-81
2021/10/10 12:17:37;;;;;;;2.38;1.33;;;17.80;58.80;;;;;;5037068;28;20224;-81
2021/10/10 12:20:22;;;;;;;2.30;1.45;;;17.80;58.10;;;;;;5037394;28;20232;-80
2021/10/10 12:22:55;;;;;;;1.50;1.42;;;17.80;57.50;;;;;;5036819;28;20223;-80
2021/10/10 12:25:29;;;;;;;3.45;1.95;;;17.80;57.60;;;;;;5035498;28;20220;-80
2021/10/10 12:27:59;;;;;;;3.53;2.20;;;17.90;57.60;;;;;;5035434;28;20675;-80
2021/10/10 12:30:30;;;;;;;2.15;1.77;;;17.90;57.60;;;;;;5036068;28;20206;-80
2021/10/10 12:32:58;;;;;;;1.92;1.83;;;18.00;56.80;;;;;;5036139;28;20173;-80
2021/10/10 12:35:24;;;;;;;1.90;1.42;;;18.00;57.50;;;;;;5036112;28;20227;-80
2021/10/10 12:37:56;;;;;;;3.35;1.63;;;18.00;55.10;;;;;;5036052;28;20205;-80
2021/10/10 12:40:36;;;;;;;6.53;1.63;;;17.90;56.40;;;;;;5036486;28;20178;-80
2021/10/10 12:43:02;;;;;;;1.75;1.08;;;17.90;57.90;;;;;;5036411;28;20192;-80
2021/10/10 12:45:32;;;;;;;1.98;1.23;;;18.00;57.00;;;;;;5036856;28;20688;-81
2021/10/10 12:47:58;;;;;;;3.92;1.73;;;18.00;55.10;;;;;;5036035;28;20200;-81
2021/10/10 12:50:24;;;;;;;1.90;1.00;;;18.10;55.50;;;;;;5035471;28;20173;-82
2021/10/10 12:52:49;;;;;;;3.43;1.73;;;18.00;55.10;;;;;;5036012;28;20213;-81
2021/10/10 12:55:26;;;;;;;1.63;1.17;;;17.70;56.20;;;;;;5036177;28;20790;-80
2021/10/10 12:57:54;;;;;;;3.25;2.30;;;17.60;57.10;;;;;;5035392;28;20497;-81
2021/10/10 13:00:21;;;;;;;1.50;1.40;;;17.70;56.80;;;;;;5036423;28;20169;-81
2021/10/10 13:02:50;;;;;;;2.85;1.90;;;17.90;58.30;;;;;;5036303;28;20174;-80
2021/10/10 13:05:18;;;;;;;2.25;1.75;;;18.10;55.00;;;;;;5035904;28;20579;-80
2021/10/10 13:07:44;;;;;;;3.95;1.95;;;18.20;54.50;;;;;;5036263;28;20189;-81